sensor_id;sensor_type;location;lat;lon;timestamp;P1;durP1;ratioP1;P2;durP2;ratioP2
8349;SDS011;60699;48.946;8.412;2023-05-07T00:00:49;2.97;;;2.77;;
8349;SDS011;60699;48.946;8.412;2023-05-07T00:03:16;4.00;;;3.10;;
8349;SDS011;60699;48.946;8.412;2023-05-07T00:05:44;3.23;;;3.03;;
8349;SDS011;60699;48.946;8.412;2023-05-07T00:08:11;4.63;;;3.10;;
8349;SDS011;60699;48.946;8.412;2023-05-07T00:10:38;3.50;;;2.90;;
8349;SDS011;60699;48.946;8.412;2023-05-07T00:13:05;3.70;;;3.23;;
8349;SDS011;60699;48.946;8.412;2023-05-07T00:15:32;4.10;;;2.90;;
8349;SDS011;60699;48.946;8.412;2023-05-07T00:18:00;3.10;;;2.80;;
8349;SDS011;60699;48.946;8.412;2023-05-07T00:20:27;3.13;;;2.70;;
8349;SDS011;60699;48.946;8.412;2023-05-07T00:22:54;3.17;;;2.87;;
8349;SDS011;60699;48.946;8.412;2023-05-07T00:25:21;3.40;;;3.10;;
8349;SDS011;60699;48.946;8.412;2023-05-07T00:27:48;3.87;;;3.37;;
8349;SDS011;60699;48.946;8.412;2023-05-07T00:30:16;2.87;;;2.67;;
8349;SDS011;60699;48.946;8.412;2023-05-07T00:32:43;2.90;;;2.70;;
8349;SDS011;60699;48.946;8.412;2023-05-07T00:35:12;2.50;;;2.30;;
8349;SDS011;60699;48.946;8.412;2023-05-07T00:37:39;3.60;;;3.23;;
8349;SDS011;60699;48.946;8.412;2023-05-07T00:40:06;2.90;;;2.70;;
8349;SDS011;60699;48.946;8.412;2023-05-07T00:42:34;3.80;;;3.10;;
8349;SDS011;60699;48.946;8.412;2023-05-07T00:45:01;2.87;;;2.67;;
8349;SDS011;60699;48.946;8.412;2023-05-07T00:47:28;3.63;;;3.03;;
8349;SDS011;60699;48.946;8.412;2023-05-07T00:49:55;3.30;;;3.10;;
8349;SDS011;60699;48.946;8.412;2023-05-07T00:52:25;2.80;;;2.60;;
8349;SDS011;60699;48.946;8.412;2023-05-07T00:54:52;2.97;;;2.77;;
8349;SDS011;60699;48.946;8.412;2023-05-07T00:57:21;2.53;;;2.33;;
8349;SDS011;60699;48.946;8.412;2023-05-07T00:59:48;2.80;;;2.53;;
8349;SDS011;60699;48.946;8.412;2023-05-07T01:02:15;3.40;;;3.10;;
8349;SDS011;60699;48.946;8.412;2023-05-07T01:04:43;3.33;;;3.13;;
8349;SDS011;60699;48.946;8.412;2023-05-07T01:07:10;2.93;;;2.73;;
8349;SDS011;60699;48.946;8.412;2023-05-07T01:09:39;2.77;;;2.57;;
8349;SDS011;60699;48.946;8.412;2023-05-07T01:12:06;3.27;;;3.00;;
8349;SDS011;60699;48.946;8.412;2023-05-07T01:14:33;2.97;;;2.67;;
8349;SDS011;60699;48.946;8.412;2023-05-07T01:17:00;4.23;;;3.30;;
8349;SDS011;60699;48.946;8.412;2023-05-07T01:19:28;3.33;;;3.03;;
8349;SDS011;60699;48.946;8.412;2023-05-07T01:21:57;3.73;;;3.37;;
8349;SDS011;60699;48.946;8.412;2023-05-07T01:24:29;3.93;;;3.63;;
8349;SDS011;60699;48.946;8.412;2023-05-07T01:26:56;2.90;;;2.70;;
8349;SDS011;60699;48.946;8.412;2023-05-07T01:29:23;2.73;;;2.53;;
8349;SDS011;60699;48.946;8.412;2023-05-07T01:31:50;3.40;;;2.90;;
8349;SDS011;60699;48.946;8.412;2023-05-07T01:34:18;3.40;;;2.50;;
8349;SDS011;60699;48.946;8.412;2023-05-07T01:36:48;3.20;;;2.90;;
8349;SDS011;60699;48.946;8.412;2023-05-07T01:39:15;6.80;;;4.17;;
8349;SDS011;60699;48.946;8.412;2023-05-07T01:41:44;3.00;;;2.47;;
8349;SDS011;60699;48.946;8.412;2023-05-07T01:46:38;2.50;;;2.30;;
8349;SDS011;60699;48.946;8.412;2023-05-07T01:49:05;2.93;;;2.63;;
8349;SDS011;60699;48.946;8.412;2023-05-07T01:51:32;2.30;;;2.17;;
8349;SDS011;60699;48.946;8.412;2023-05-07T01:54:00;2.13;;;2.03;;
8349;SDS011;60699;48.946;8.412;2023-05-07T01:56:27;2.40;;;2.20;;
8349;SDS011;60699;48.946;8.412;2023-05-07T01:58:55;3.20;;;3.00;;
8349;SDS011;60699;48.946;8.412;2023-05-07T02:01:22;3.00;;;2.60;;
8349;SDS011;60699;48.946;8.412;2023-05-07T02:03:49;2.70;;;2.50;;
8349;SDS011;60699;48.946;8.412;2023-05-07T02:06:16;3.40;;;3.10;;
8349;SDS011;60699;48.946;8.412;2023-05-07T02:08:44;3.97;;;2.50;;
8349;SDS011;60699;48.946;8.412;2023-05-07T02:11:11;2.17;;;2.07;;
8349;SDS011;60699;48.946;8.412;2023-05-07T02:13:38;2.50;;;2.40;;
8349;SDS011;60699;48.946;8.412;2023-05-07T02:16:06;3.33;;;3.03;;
8349;SDS011;60699;48.946;8.412;2023-05-07T02:18:33;3.43;;;2.73;;
8349;SDS011;60699;48.946;8.412;2023-05-07T02:21:01;2.80;;;2.50;;
8349;SDS011;60699;48.946;8.412;2023-05-07T02:23:28;4.63;;;2.50;;
8349;SDS011;60699;48.946;8.412;2023-05-07T02:25:55;2.72;;;2.53;;
8349;SDS011;60699;48.946;8.412;2023-05-07T02:28:22;3.00;;;2.75;;
8349;SDS011;60699;48.946;8.412;2023-05-07T02:30:49;3.40;;;2.60;;
8349;SDS011;60699;48.946;8.412;2023-05-07T02:33:18;2.73;;;2.30;;
8349;SDS011;60699;48.946;8.412;2023-05-07T02:35:45;2.90;;;2.70;;
8349;SDS011;60699;48.946;8.412;2023-05-07T02:38:12;2.97;;;2.77;;
8349;SDS011;60699;48.946;8.412;2023-05-07T02:40:39;2.43;;;2.27;;
8349;SDS011;60699;48.946;8.412;2023-05-07T02:43:06;2.37;;;2.17;;
8349;SDS011;60699;48.946;8.412;2023-05-07T02:45:33;2.53;;;2.33;;
8349;SDS011;60699;48.946;8.412;2023-05-07T02:48:01;2.57;;;2.30;;
8349;SDS011;60699;48.946;8.412;2023-05-07T02:50:29;2.50;;;2.40;;
8349;SDS011;60699;48.946;8.412;2023-05-07T02:52:57;2.57;;;2.37;;
8349;SDS011;60699;48.946;8.412;2023-05-07T02:55:24;2.53;;;2.43;;
8349;SDS011;60699;48.946;8.412;2023-05-07T02:57:51;2.70;;;2.50;;
8349;SDS011;60699;48.946;8.412;2023-05-07T03:00:18;2.83;;;2.40;;
8349;SDS011;60699;48.946;8.412;2023-05-07T03:02:46;2.20;;;2.10;;
8349;SDS011;60699;48.946;8.412;2023-05-07T03:05:13;3.60;;;3.17;;
8349;SDS011;60699;48.946;8.412;2023-05-07T03:07:41;5.00;;;2.30;;
8349;SDS011;60699;48.946;8.412;2023-05-07T03:10:11;2.37;;;2.27;;
8349;SDS011;60699;48.946;8.412;2023-05-07T03:12:38;2.20;;;2.03;;
8349;SDS011;60699;48.946;8.412;2023-05-07T03:15:05;3.23;;;2.70;;
8349;SDS011;60699;48.946;8.412;2023-05-07T03:17:33;2.83;;;2.63;;
8349;SDS011;60699;48.946;8.412;2023-05-07T03:20:00;2.47;;;2.22;;
8349;SDS011;60699;48.946;8.412;2023-05-07T03:22:27;2.55;;;2.42;;
8349;SDS011;60699;48.946;8.412;2023-05-07T03:24:55;3.58;;;2.47;;
8349;SDS011;60699;48.946;8.412;2023-05-07T03:27:22;2.30;;;2.20;;
8349;SDS011;60699;48.946;8.412;2023-05-07T03:29:49;2.63;;;2.42;;
8349;SDS011;60699;48.946;8.412;2023-05-07T03:32:16;2.80;;;2.60;;
8349;SDS011;60699;48.946;8.412;2023-05-07T03:34:43;3.60;;;2.65;;
8349;SDS011;60699;48.946;8.412;2023-05-07T03:37:10;3.72;;;3.45;;
8349;SDS011;60699;48.946;8.412;2023-05-07T03:39:37;6.03;;;2.90;;
8349;SDS011;60699;48.946;8.412;2023-05-07T03:42:05;2.85;;;2.65;;
8349;SDS011;60699;48.946;8.412;2023-05-07T03:44:32;3.22;;;2.72;;
8349;SDS011;60699;48.946;8.412;2023-05-07T03:47:01;3.33;;;3.03;;
8349;SDS011;60699;48.946;8.412;2023-05-07T03:49:28;2.70;;;2.50;;
8349;SDS011;60699;48.946;8.412;2023-05-07T03:51:55;3.33;;;3.10;;
8349;SDS011;60699;48.946;8.412;2023-05-07T03:54:22;3.45;;;3.15;;
8349;SDS011;60699;48.946;8.412;2023-05-07T03:56:49;2.45;;;2.25;;
8349;SDS011;60699;48.946;8.412;2023-05-07T03:59:17;2.90;;;2.63;;
8349;SDS011;60699;48.946;8.412;2023-05-07T04:01:44;3.95;;;2.80;;
8349;SDS011;60699;48.946;8.412;2023-05-07T04:04:11;3.08;;;2.78;;
8349;SDS011;60699;48.946;8.412;2023-05-07T04:06:38;3.40;;;3.10;;
8349;SDS011;60699;48.946;8.412;2023-05-07T04:09:06;2.50;;;2.40;;
8349;SDS011;60699;48.946;8.412;2023-05-07T04:11:33;2.25;;;2.15;;
8349;SDS011;60699;48.946;8.412;2023-05-07T04:14:00;5.60;;;3.30;;
8349;SDS011;60699;48.946;8.412;2023-05-07T04:16:28;2.80;;;2.60;;
8349;SDS011;60699;48.946;8.412;2023-05-07T04:18:55;2.45;;;2.35;;
8349;SDS011;60699;48.946;8.412;2023-05-07T04:21:22;3.47;;;3.17;;
8349;SDS011;60699;48.946;8.412;2023-05-07T04:23:50;2.50;;;2.40;;
8349;SDS011;60699;48.946;8.412;2023-05-07T04:26:17;3.28;;;3.08;;
8349;SDS011;60699;48.946;8.412;2023-05-07T04:28:46;2.93;;;2.27;;
8349;SDS011;60699;48.946;8.412;2023-05-07T04:31:13;3.25;;;2.60;;
8349;SDS011;60699;48.946;8.412;2023-05-07T04:33:41;3.10;;;2.90;;
8349;SDS011;60699;48.946;8.412;2023-05-07T04:36:08;2.78;;;2.63;;
8349;SDS011;60699;48.946;8.412;2023-05-07T04:38:35;3.90;;;3.50;;
8349;SDS011;60699;48.946;8.412;2023-05-07T04:41:04;2.90;;;2.47;;
8349;SDS011;60699;48.946;8.412;2023-05-07T04:43:31;3.20;;;2.95;;
8349;SDS011;60699;48.946;8.412;2023-05-07T04:45:58;3.10;;;2.80;;
8349;SDS011;60699;48.946;8.412;2023-05-07T04:48:25;3.88;;;3.58;;
8349;SDS011;60699;48.946;8.412;2023-05-07T04:50:54;3.30;;;3.03;;
8349;SDS011;60699;48.946;8.412;2023-05-07T04:53:21;3.83;;;3.63;;
8349;SDS011;60699;48.946;8.412;2023-05-07T04:55:48;3.25;;;3.05;;
8349;SDS011;60699;48.946;8.412;2023-05-07T04:58:15;3.10;;;2.90;;
8349;SDS011;60699;48.946;8.412;2023-05-07T05:00:42;2.67;;;2.47;;
8349;SDS011;60699;48.946;8.412;2023-05-07T05:03:09;3.00;;;2.80;;
8349;SDS011;60699;48.946;8.412;2023-05-07T05:05:36;3.20;;;3.00;;
8349;SDS011;60699;48.946;8.412;2023-05-07T05:08:05;3.00;;;2.80;;
8349;SDS011;60699;48.946;8.412;2023-05-07T05:10:32;4.00;;;2.60;;
8349;SDS011;60699;48.946;8.412;2023-05-07T05:12:59;2.90;;;2.70;;
8349;SDS011;60699;48.946;8.412;2023-05-07T05:15:26;2.87;;;2.70;;
8349;SDS011;60699;48.946;8.412;2023-05-07T05:17:53;3.22;;;2.90;;
8349;SDS011;60699;48.946;8.412;2023-05-07T05:20:20;2.87;;;2.67;;
8349;SDS011;60699;48.946;8.412;2023-05-07T05:22:47;6.50;;;3.23;;
8349;SDS011;60699;48.946;8.412;2023-05-07T05:25:15;2.63;;;2.43;;
8349;SDS011;60699;48.946;8.412;2023-05-07T05:27:42;2.60;;;2.50;;
8349;SDS011;60699;48.946;8.412;2023-05-07T05:30:09;2.75;;;2.55;;
8349;SDS011;60699;48.946;8.412;2023-05-07T05:32:37;3.20;;;3.00;;
8349;SDS011;60699;48.946;8.412;2023-05-07T05:35:04;2.97;;;2.67;;
8349;SDS011;60699;48.946;8.412;2023-05-07T05:37:32;2.97;;;2.77;;
8349;SDS011;60699;48.946;8.412;2023-05-07T05:39:59;4.90;;;4.40;;
8349;SDS011;60699;48.946;8.412;2023-05-07T05:42:27;3.63;;;3.33;;
8349;SDS011;60699;48.946;8.412;2023-05-07T05:44:54;4.50;;;3.20;;
8349;SDS011;60699;48.946;8.412;2023-05-07T05:47:21;3.43;;;3.10;;
8349;SDS011;60699;48.946;8.412;2023-05-07T05:49:48;4.00;;;2.90;;
8349;SDS011;60699;48.946;8.412;2023-05-07T05:52:15;3.17;;;2.97;;
8349;SDS011;60699;48.946;8.412;2023-05-07T05:54:42;3.73;;;3.27;;
8349;SDS011;60699;48.946;8.412;2023-05-07T05:57:09;2.63;;;2.43;;
8349;SDS011;60699;48.946;8.412;2023-05-07T05:59:38;3.33;;;3.03;;
8349;SDS011;60699;48.946;8.412;2023-05-07T06:02:05;4.00;;;3.70;;
8349;SDS011;60699;48.946;8.412;2023-05-07T06:04:32;5.80;;;3.03;;
8349;SDS011;60699;48.946;8.412;2023-05-07T06:06:59;2.90;;;2.70;;
8349;SDS011;60699;48.946;8.412;2023-05-07T06:09:26;3.40;;;3.10;;
8349;SDS011;60699;48.946;8.412;2023-05-07T06:11:53;3.60;;;3.20;;
8349;SDS011;60699;48.946;8.412;2023-05-07T06:14:20;4.80;;;3.40;;
8349;SDS011;60699;48.946;8.412;2023-05-07T06:16:49;4.40;;;2.90;;
8349;SDS011;60699;48.946;8.412;2023-05-07T06:19:16;4.70;;;3.83;;
8349;SDS011;60699;48.946;8.412;2023-05-07T06:21:48;3.50;;;3.20;;
8349;SDS011;60699;48.946;8.412;2023-05-07T06:24:15;3.13;;;2.83;;
8349;SDS011;60699;48.946;8.412;2023-05-07T06:26:42;3.20;;;3.00;;
8349;SDS011;60699;48.946;8.412;2023-05-07T06:29:09;3.13;;;2.83;;
8349;SDS011;60699;48.946;8.412;2023-05-07T06:31:36;3.03;;;2.83;;
8349;SDS011;60699;48.946;8.412;2023-05-07T06:34:04;3.53;;;3.22;;
8349;SDS011;60699;48.946;8.412;2023-05-07T06:36:31;3.13;;;2.88;;
8349;SDS011;60699;48.946;8.412;2023-05-07T06:38:58;3.77;;;3.47;;
8349;SDS011;60699;48.946;8.412;2023-05-07T06:41:25;3.60;;;3.30;;
8349;SDS011;60699;48.946;8.412;2023-05-07T06:43:52;3.07;;;2.80;;
8349;SDS011;60699;48.946;8.412;2023-05-07T06:46:19;3.60;;;3.40;;
8349;SDS011;60699;48.946;8.412;2023-05-07T06:48:46;3.33;;;3.13;;
8349;SDS011;60699;48.946;8.412;2023-05-07T06:51:14;2.80;;;2.60;;
8349;SDS011;60699;48.946;8.412;2023-05-07T06:53:41;3.50;;;2.87;;
8349;SDS011;60699;48.946;8.412;2023-05-07T06:56:08;3.10;;;2.90;;
8349;SDS011;60699;48.946;8.412;2023-05-07T06:58:37;3.00;;;2.80;;
8349;SDS011;60699;48.946;8.412;2023-05-07T07:01:04;3.70;;;3.40;;
8349;SDS011;60699;48.946;8.412;2023-05-07T07:03:31;3.83;;;3.53;;
8349;SDS011;60699;48.946;8.412;2023-05-07T07:05:58;3.77;;;3.40;;
8349;SDS011;60699;48.946;8.412;2023-05-07T07:08:28;4.87;;;3.50;;
8349;SDS011;60699;48.946;8.412;2023-05-07T07:10:55;3.10;;;2.90;;
8349;SDS011;60699;48.946;8.412;2023-05-07T07:13:22;3.77;;;3.47;;
8349;SDS011;60699;48.946;8.412;2023-05-07T07:15:49;5.90;;;3.00;;
8349;SDS011;60699;48.946;8.412;2023-05-07T07:18:16;3.20;;;3.00;;
8349;SDS011;60699;48.946;8.412;2023-05-07T07:20:43;3.20;;;3.00;;
8349;SDS011;60699;48.946;8.412;2023-05-07T07:23:10;3.60;;;3.40;;
8349;SDS011;60699;48.946;8.412;2023-05-07T07:25:38;3.30;;;3.00;;
8349;SDS011;60699;48.946;8.412;2023-05-07T07:28:06;3.10;;;2.80;;
8349;SDS011;60699;48.946;8.412;2023-05-07T07:30:33;4.00;;;3.60;;
8349;SDS011;60699;48.946;8.412;2023-05-07T07:33:00;2.77;;;2.57;;
8349;SDS011;60699;48.946;8.412;2023-05-07T07:35:28;5.80;;;2.93;;
8349;SDS011;60699;48.946;8.412;2023-05-07T07:37:55;4.43;;;3.80;;
8349;SDS011;60699;48.946;8.412;2023-05-07T07:40:22;3.00;;;2.80;;
8349;SDS011;60699;48.946;8.412;2023-05-07T07:42:51;3.00;;;2.80;;
8349;SDS011;60699;48.946;8.412;2023-05-07T07:45:18;3.67;;;3.37;;
8349;SDS011;60699;48.946;8.412;2023-05-07T07:47:45;5.30;;;3.10;;
8349;SDS011;60699;48.946;8.412;2023-05-07T07:50:12;3.33;;;3.03;;
8349;SDS011;60699;48.946;8.412;2023-05-07T07:52:39;4.77;;;4.13;;
8349;SDS011;60699;48.946;8.412;2023-05-07T07:55:07;4.60;;;3.80;;
8349;SDS011;60699;48.946;8.412;2023-05-07T07:57:34;3.90;;;3.57;;
8349;SDS011;60699;48.946;8.412;2023-05-07T08:00:03;3.27;;;2.97;;
8349;SDS011;60699;48.946;8.412;2023-05-07T08:02:31;4.10;;;3.00;;
8349;SDS011;60699;48.946;8.412;2023-05-07T08:04:58;3.23;;;2.90;;
8349;SDS011;60699;48.946;8.412;2023-05-07T08:07:25;7.30;;;4.07;;
8349;SDS011;60699;48.946;8.412;2023-05-07T08:09:52;5.27;;;4.30;;
8349;SDS011;60699;48.946;8.412;2023-05-07T08:12:19;4.03;;;3.53;;
8349;SDS011;60699;48.946;8.412;2023-05-07T08:14:46;5.10;;;3.70;;
8349;SDS011;60699;48.946;8.412;2023-05-07T08:17:14;4.00;;;3.50;;
8349;SDS011;60699;48.946;8.412;2023-05-07T08:19:41;4.40;;;4.10;;
8349;SDS011;60699;48.946;8.412;2023-05-07T08:22:08;3.27;;;2.97;;
8349;SDS011;60699;48.946;8.412;2023-05-07T08:24:35;3.90;;;3.60;;
8349;SDS011;60699;48.946;8.412;2023-05-07T08:27:03;4.07;;;3.77;;
8349;SDS011;60699;48.946;8.412;2023-05-07T08:29:30;4.10;;;3.80;;
8349;SDS011;60699;48.946;8.412;2023-05-07T08:31:57;4.20;;;3.80;;
8349;SDS011;60699;48.946;8.412;2023-05-07T08:34:25;4.20;;;3.90;;
8349;SDS011;60699;48.946;8.412;2023-05-07T08:36:52;4.10;;;3.73;;
8349;SDS011;60699;48.946;8.412;2023-05-07T08:39:20;4.00;;;3.60;;
8349;SDS011;60699;48.946;8.412;2023-05-07T08:41:47;5.00;;;3.90;;
8349;SDS011;60699;48.946;8.412;2023-05-07T08:44:15;5.07;;;4.67;;
8349;SDS011;60699;48.946;8.412;2023-05-07T08:46:43;4.30;;;4.00;;
8349;SDS011;60699;48.946;8.412;2023-05-07T08:49:13;4.43;;;4.03;;
8349;SDS011;60699;48.946;8.412;2023-05-07T08:51:42;4.63;;;4.10;;
8349;SDS011;60699;48.946;8.412;2023-05-07T08:54:09;4.90;;;3.90;;
8349;SDS011;60699;48.946;8.412;2023-05-07T08:56:37;8.60;;;4.50;;
8349;SDS011;60699;48.946;8.412;2023-05-07T08:59:05;4.07;;;3.77;;
8349;SDS011;60699;48.946;8.412;2023-05-07T09:01:32;4.27;;;3.83;;
8349;SDS011;60699;48.946;8.412;2023-05-07T09:04:00;4.10;;;3.80;;
8349;SDS011;60699;48.946;8.412;2023-05-07T09:06:27;4.67;;;4.37;;
8349;SDS011;60699;48.946;8.412;2023-05-07T09:08:56;4.83;;;4.03;;
8349;SDS011;60699;48.946;8.412;2023-05-07T09:11:26;4.70;;;4.10;;
8349;SDS011;60699;48.946;8.412;2023-05-07T09:13:53;4.90;;;4.50;;
8349;SDS011;60699;48.946;8.412;2023-05-07T09:16:21;3.70;;;3.40;;
8349;SDS011;60699;48.946;8.412;2023-05-07T09:18:49;4.37;;;3.97;;
8349;SDS011;60699;48.946;8.412;2023-05-07T09:21:17;4.00;;;3.70;;
8349;SDS011;60699;48.946;8.412;2023-05-07T09:23:44;5.23;;;4.90;;
8349;SDS011;60699;48.946;8.412;2023-05-07T09:26:13;4.87;;;4.10;;
8349;SDS011;60699;48.946;8.412;2023-05-07T09:28:41;4.63;;;4.23;;
8349;SDS011;60699;48.946;8.412;2023-05-07T09:31:08;6.13;;;4.50;;
8349;SDS011;60699;48.946;8.412;2023-05-07T09:33:35;5.77;;;5.27;;
8349;SDS011;60699;48.946;8.412;2023-05-07T09:36:03;5.00;;;4.57;;
8349;SDS011;60699;48.946;8.412;2023-05-07T09:38:30;5.33;;;4.60;;
8349;SDS011;60699;48.946;8.412;2023-05-07T09:41:04;11.30;;;4.33;;
8349;SDS011;60699;48.946;8.412;2023-05-07T09:43:33;5.83;;;4.07;;
8349;SDS011;60699;48.946;8.412;2023-05-07T09:46:05;4.57;;;4.17;;
8349;SDS011;60699;48.946;8.412;2023-05-07T09:48:34;5.47;;;3.70;;
8349;SDS011;60699;48.946;8.412;2023-05-07T09:51:03;4.07;;;3.70;;
8349;SDS011;60699;48.946;8.412;2023-05-07T09:53:33;4.57;;;4.13;;
8349;SDS011;60699;48.946;8.412;2023-05-07T09:56:01;4.30;;;3.93;;
8349;SDS011;60699;48.946;8.412;2023-05-07T09:58:29;3.43;;;3.23;;
8349;SDS011;60699;48.946;8.412;2023-05-07T10:00:57;6.70;;;3.80;;
8349;SDS011;60699;48.946;8.412;2023-05-07T10:03:24;3.87;;;3.57;;
8349;SDS011;60699;48.946;8.412;2023-05-07T10:05:55;3.70;;;3.40;;
8349;SDS011;60699;48.946;8.412;2023-05-07T10:08:22;4.77;;;4.37;;
8349;SDS011;60699;48.946;8.412;2023-05-07T10:10:49;4.23;;;3.83;;
8349;SDS011;60699;48.946;8.412;2023-05-07T10:13:16;3.50;;;3.27;;
8349;SDS011;60699;48.946;8.412;2023-05-07T10:15:44;5.13;;;4.00;;
8349;SDS011;60699;48.946;8.412;2023-05-07T10:18:12;4.30;;;3.87;;
8349;SDS011;60699;48.946;8.412;2023-05-07T10:20:40;3.37;;;3.10;;
8349;SDS011;60699;48.946;8.412;2023-05-07T10:23:08;7.70;;;4.50;;
8349;SDS011;60699;48.946;8.412;2023-05-07T10:25:39;3.73;;;3.53;;
8349;SDS011;60699;48.946;8.412;2023-05-07T10:28:07;4.10;;;3.70;;
8349;SDS011;60699;48.946;8.412;2023-05-07T10:30:38;4.03;;;3.73;;
8349;SDS011;60699;48.946;8.412;2023-05-07T10:33:06;5.03;;;4.20;;
8349;SDS011;60699;48.946;8.412;2023-05-07T10:35:37;4.33;;;3.97;;
8349;SDS011;60699;48.946;8.412;2023-05-07T10:38:05;4.60;;;4.20;;
8349;SDS011;60699;48.946;8.412;2023-05-07T10:40:33;8.80;;;4.43;;
8349;SDS011;60699;48.946;8.412;2023-05-07T10:43:00;4.43;;;3.93;;
8349;SDS011;60699;48.946;8.412;2023-05-07T10:45:29;5.97;;;4.20;;
8349;SDS011;60699;48.946;8.412;2023-05-07T10:48:05;3.60;;;3.40;;
8349;SDS011;60699;48.946;8.412;2023-05-07T10:50:33;3.80;;;3.50;;
8349;SDS011;60699;48.946;8.412;2023-05-07T10:55:47;3.93;;;3.63;;
8349;SDS011;60699;48.946;8.412;2023-05-07T10:58:24;4.70;;;4.30;;
8349;SDS011;60699;48.946;8.412;2023-05-07T11:00:55;4.70;;;4.30;;
8349;SDS011;60699;48.946;8.412;2023-05-07T11:03:22;3.60;;;3.40;;
8349;SDS011;60699;48.946;8.412;2023-05-07T11:06:04;5.10;;;3.33;;
8349;SDS011;60699;48.946;8.412;2023-05-07T11:08:53;7.90;;;3.73;;
8349;SDS011;60699;48.946;8.412;2023-05-07T11:14:04;4.40;;;3.90;;
8349;SDS011;60699;48.946;8.412;2023-05-07T11:16:31;5.17;;;3.30;;
8349;SDS011;60699;48.946;8.412;2023-05-07T11:19:01;6.70;;;4.90;;
8349;SDS011;60699;48.946;8.412;2023-05-07T11:21:32;4.00;;;3.70;;
8349;SDS011;60699;48.946;8.412;2023-05-07T11:23:59;3.90;;;3.60;;
8349;SDS011;60699;48.946;8.412;2023-05-07T11:26:27;4.70;;;4.03;;
8349;SDS011;60699;48.946;8.412;2023-05-07T11:28:54;3.97;;;3.67;;
8349;SDS011;60699;48.946;8.412;2023-05-07T11:31:23;4.17;;;3.70;;
8349;SDS011;60699;48.946;8.412;2023-05-07T11:33:51;4.03;;;3.47;;
8349;SDS011;60699;48.946;8.412;2023-05-07T11:36:18;4.37;;;3.97;;
8349;SDS011;60699;48.946;8.412;2023-05-07T11:38:46;4.20;;;3.90;;
8349;SDS011;60699;48.946;8.412;2023-05-07T11:41:13;6.20;;;3.70;;
8349;SDS011;60699;48.946;8.412;2023-05-07T11:43:53;4.47;;;4.07;;
8349;SDS011;60699;48.946;8.412;2023-05-07T11:46:20;3.90;;;3.60;;
8349;SDS011;60699;48.946;8.412;2023-05-07T11:48:48;2.97;;;2.80;;
8349;SDS011;60699;48.946;8.412;2023-05-07T11:51:18;4.10;;;3.70;;
8349;SDS011;60699;48.946;8.412;2023-05-07T11:53:45;4.70;;;4.17;;
8349;SDS011;60699;48.946;8.412;2023-05-07T11:56:13;3.97;;;3.67;;
8349;SDS011;60699;48.946;8.412;2023-05-07T11:58:41;5.97;;;3.90;;
8349;SDS011;60699;48.946;8.412;2023-05-07T12:01:08;4.30;;;4.00;;
8349;SDS011;60699;48.946;8.412;2023-05-07T12:03:35;4.30;;;3.90;;
8349;SDS011;60699;48.946;8.412;2023-05-07T12:06:06;3.90;;;3.70;;
8349;SDS011;60699;48.946;8.412;2023-05-07T12:08:35;6.90;;;4.17;;
8349;SDS011;60699;48.946;8.412;2023-05-07T12:11:02;3.80;;;3.50;;
8349;SDS011;60699;48.946;8.412;2023-05-07T12:13:29;4.03;;;3.73;;
8349;SDS011;60699;48.946;8.412;2023-05-07T12:15:56;3.47;;;3.27;;
8349;SDS011;60699;48.946;8.412;2023-05-07T12:18:24;4.00;;;3.70;;
8349;SDS011;60699;48.946;8.412;2023-05-07T12:20:51;3.80;;;3.53;;
8349;SDS011;60699;48.946;8.412;2023-05-07T12:23:19;3.60;;;3.40;;
8349;SDS011;60699;48.946;8.412;2023-05-07T12:25:47;3.47;;;3.17;;
8349;SDS011;60699;48.946;8.412;2023-05-07T12:28:14;3.70;;;3.40;;
8349;SDS011;60699;48.946;8.412;2023-05-07T12:30:41;3.70;;;3.40;;
8349;SDS011;60699;48.946;8.412;2023-05-07T12:33:09;3.30;;;3.10;;
8349;SDS011;60699;48.946;8.412;2023-05-07T12:35:36;3.60;;;3.30;;
8349;SDS011;60699;48.946;8.412;2023-05-07T12:38:06;3.33;;;3.03;;
8349;SDS011;60699;48.946;8.412;2023-05-07T12:40:39;3.40;;;3.20;;
8349;SDS011;60699;48.946;8.412;2023-05-07T12:43:06;4.57;;;4.03;;
8349;SDS011;60699;48.946;8.412;2023-05-07T12:45:36;3.90;;;3.60;;
8349;SDS011;60699;48.946;8.412;2023-05-07T12:48:04;3.37;;;3.17;;
8349;SDS011;60699;48.946;8.412;2023-05-07T12:50:31;4.07;;;3.30;;
8349;SDS011;60699;48.946;8.412;2023-05-07T12:52:59;3.37;;;3.00;;
8349;SDS011;60699;48.946;8.412;2023-05-07T12:55:28;5.50;;;3.40;;
8349;SDS011;60699;48.946;8.412;2023-05-07T12:57:56;3.80;;;3.50;;
8349;SDS011;60699;48.946;8.412;2023-05-07T13:00:33;4.13;;;3.73;;
8349;SDS011;60699;48.946;8.412;2023-05-07T13:03:00;4.10;;;3.70;;
8349;SDS011;60699;48.946;8.412;2023-05-07T13:05:27;4.53;;;3.90;;
8349;SDS011;60699;48.946;8.412;2023-05-07T13:07:54;3.87;;;3.57;;
8349;SDS011;60699;48.946;8.412;2023-05-07T13:10:22;3.33;;;3.13;;
8349;SDS011;60699;48.946;8.412;2023-05-07T13:12:49;4.40;;;3.70;;
8349;SDS011;60699;48.946;8.412;2023-05-07T13:15:18;3.80;;;3.50;;
8349;SDS011;60699;48.946;8.412;2023-05-07T13:17:45;4.10;;;3.80;;
8349;SDS011;60699;48.946;8.412;2023-05-07T13:20:12;6.60;;;4.23;;
8349;SDS011;60699;48.946;8.412;2023-05-07T13:22:40;3.77;;;3.47;;
8349;SDS011;60699;48.946;8.412;2023-05-07T13:25:07;4.10;;;3.80;;
8349;SDS011;60699;48.946;8.412;2023-05-07T13:27:34;5.97;;;4.13;;
8349;SDS011;60699;48.946;8.412;2023-05-07T13:30:02;4.37;;;4.00;;
8349;SDS011;60699;48.946;8.412;2023-05-07T13:32:31;8.63;;;4.53;;
8349;SDS011;60699;48.946;8.412;2023-05-07T13:34:58;9.83;;;5.47;;
8349;SDS011;60699;48.946;8.412;2023-05-07T13:37:25;6.90;;;3.80;;
8349;SDS011;60699;48.946;8.412;2023-05-07T13:39:52;4.17;;;3.77;;
8349;SDS011;60699;48.946;8.412;2023-05-07T13:42:19;4.10;;;3.80;;
8349;SDS011;60699;48.946;8.412;2023-05-07T13:44:46;6.20;;;4.10;;
8349;SDS011;60699;48.946;8.412;2023-05-07T13:47:13;4.77;;;4.40;;
8349;SDS011;60699;48.946;8.412;2023-05-07T13:49:41;4.47;;;4.07;;
8349;SDS011;60699;48.946;8.412;2023-05-07T13:52:08;4.10;;;3.80;;
8349;SDS011;60699;48.946;8.412;2023-05-07T13:54:36;4.80;;;4.40;;
8349;SDS011;60699;48.946;8.412;2023-05-07T13:57:03;6.60;;;4.30;;
8349;SDS011;60699;48.946;8.412;2023-05-07T13:59:30;4.23;;;3.93;;
8349;SDS011;60699;48.946;8.412;2023-05-07T14:01:57;5.20;;;4.70;;
8349;SDS011;60699;48.946;8.412;2023-05-07T14:04:23;4.60;;;4.00;;
8349;SDS011;60699;48.946;8.412;2023-05-07T14:06:52;5.17;;;3.87;;
8349;SDS011;60699;48.946;8.412;2023-05-07T14:09:19;4.83;;;4.33;;
8349;SDS011;60699;48.946;8.412;2023-05-07T14:11:46;4.63;;;3.90;;
8349;SDS011;60699;48.946;8.412;2023-05-07T14:14:16;2.13;;;2.00;;
8349;SDS011;60699;48.946;8.412;2023-05-07T14:16:43;1.93;;;1.83;;
8349;SDS011;60699;48.946;8.412;2023-05-07T14:19:10;1.50;;;1.40;;
8349;SDS011;60699;48.946;8.412;2023-05-07T14:21:37;4.20;;;2.23;;
8349;SDS011;60699;48.946;8.412;2023-05-07T14:24:06;1.57;;;1.47;;
8349;SDS011;60699;48.946;8.412;2023-05-07T14:26:33;1.50;;;1.40;;
8349;SDS011;60699;48.946;8.412;2023-05-07T14:29:00;2.37;;;1.80;;
8349;SDS011;60699;48.946;8.412;2023-05-07T14:31:27;1.70;;;1.60;;
8349;SDS011;60699;48.946;8.412;2023-05-07T14:33:55;1.50;;;1.40;;
8349;SDS011;60699;48.946;8.412;2023-05-07T14:36:23;3.60;;;1.70;;
8349;SDS011;60699;48.946;8.412;2023-05-07T14:38:51;1.50;;;1.40;;
8349;SDS011;60699;48.946;8.412;2023-05-07T14:41:19;1.33;;;1.23;;
8349;SDS011;60699;48.946;8.412;2023-05-07T14:43:47;1.70;;;1.60;;
8349;SDS011;60699;48.946;8.412;2023-05-07T14:46:15;1.60;;;1.50;;
8349;SDS011;60699;48.946;8.412;2023-05-07T14:48:43;1.73;;;1.63;;
8349;SDS011;60699;48.946;8.412;2023-05-07T14:51:10;2.90;;;2.20;;
8349;SDS011;60699;48.946;8.412;2023-05-07T14:53:37;2.13;;;1.93;;
8349;SDS011;60699;48.946;8.412;2023-05-07T14:56:04;4.13;;;1.97;;
8349;SDS011;60699;48.946;8.412;2023-05-07T14:58:32;6.30;;;2.00;;
8349;SDS011;60699;48.946;8.412;2023-05-07T15:01:00;2.23;;;2.13;;
8349;SDS011;60699;48.946;8.412;2023-05-07T15:03:27;2.60;;;2.43;;
8349;SDS011;60699;48.946;8.412;2023-05-07T15:05:54;2.43;;;2.23;;
8349;SDS011;60699;48.946;8.412;2023-05-07T15:08:21;1.80;;;1.70;;
8349;SDS011;60699;48.946;8.412;2023-05-07T15:10:48;1.87;;;1.77;;